sensor_id;sensor_type;location;lat;lon;timestamp;temperature;humidity
24224;DHT22;12359;49.716;9.212;2023-02-10T00:01:17;-2.90;1.00
24224;DHT22;12359;49.716;9.212;2023-02-10T00:03:43;-3.00;1.00
24224;DHT22;12359;49.716;9.212;2023-02-10T00:06:10;-3.00;1.00
24224;DHT22;12359;49.716;9.212;2023-02-10T00:08:36;-3.00;1.00
24224;DHT22;12359;49.716;9.212;2023-02-10T00:11:05;-3.00;1.00
24224;DHT22;12359;49.716;9.212;2023-02-10T00:13:31;-3.10;1.00
24224;DHT22;12359;49.716;9.212;2023-02-10T00:15:58;-3.00;1.00
24224;DHT22;12359;49.716;9.212;2023-02-10T00:18:24;-3.00;1.00
24224;DHT22;12359;49.716;9.212;2023-02-10T00:20:49;-3.00;1.00
24224;DHT22;12359;49.716;9.212;2023-02-10T00:23:15;-3.10;1.00
24224;DHT22;12359;49.716;9.212;2023-02-10T00:25:41;-3.00;5.40
24224;DHT22;12359;49.716;9.212;2023-02-10T00:28:07;-3.00;12.40
24224;DHT22;12359;49.716;9.212;2023-02-10T00:30:32;-3.10;8.80
24224;DHT22;12359;49.716;9.212;2023-02-10T00:32:58;-3.00;6.80
24224;DHT22;12359;49.716;9.212;2023-02-10T00:35:24;-3.10;9.50
24224;DHT22;12359;49.716;9.212;2023-02-10T00:37:49;-3.00;5.60
24224;DHT22;12359;49.716;9.212;2023-02-10T00:40:16;-3.00;6.70
24224;DHT22;12359;49.716;9.212;2023-02-10T00:42:42;-2.90;4.90
24224;DHT22;12359;49.716;9.212;2023-02-10T00:45:08;-3.00;1.00
24224;DHT22;12359;49.716;9.212;2023-02-10T00:47:34;-3.00;1.00
24224;DHT22;12359;49.716;9.212;2023-02-10T00:50:00;-3.10;1.00
24224;DHT22;12359;49.716;9.212;2023-02-10T00:52:26;-3.10;1.00
24224;DHT22;12359;49.716;9.212;2023-02-10T00:54:51;-3.10;1.00
24224;DHT22;12359;49.716;9.212;2023-02-10T00:57:17;-3.20;1.00
24224;DHT22;12359;49.716;9.212;2023-02-10T00:59:43;-3.20;1.00
24224;DHT22;12359;49.716;9.212;2023-02-10T01:02:14;-3.20;1.90
24224;DHT22;12359;49.716;9.212;2023-02-10T01:04:40;-3.20;15.20
24224;DHT22;12359;49.716;9.212;2023-02-10T01:07:05;-3.20;18.00
24224;DHT22;12359;49.716;9.212;2023-02-10T01:09:31;-3.20;17.00
24224;DHT22;12359;49.716;9.212;2023-02-10T01:11:57;-3.20;13.40
24224;DHT22;12359;49.716;9.212;2023-02-10T01:14:23;-3.30;4.50
24224;DHT22;12359;49.716;9.212;2023-02-10T01:16:50;-3.20;3.60
24224;DHT22;12359;49.716;9.212;2023-02-10T01:19:15;-3.30;1.00
24224;DHT22;12359;49.716;9.212;2023-02-10T01:21:44;-3.30;1.00
24224;DHT22;12359;49.716;9.212;2023-02-10T01:24:09;-3.30;1.00
24224;DHT22;12359;49.716;9.212;2023-02-10T01:26:35;-3.40;1.00
24224;DHT22;12359;49.716;9.212;2023-02-10T01:29:03;-3.40;1.00
24224;DHT22;12359;49.716;9.212;2023-02-10T01:31:29;-3.40;1.00
24224;DHT22;12359;49.716;9.212;2023-02-10T01:33:55;-3.40;1.00
24224;DHT22;12359;49.716;9.212;2023-02-10T01:36:23;-3.50;1.00
24224;DHT22;12359;49.716;9.212;2023-02-10T01:38:49;-3.50;1.00
24224;DHT22;12359;49.716;9.212;2023-02-10T01:41:18;-3.60;1.00
24224;DHT22;12359;49.716;9.212;2023-02-10T01:44:56;-3.50;1.00
24224;DHT22;12359;49.716;9.212;2023-02-10T01:46:52;-3.60;1.00
24224;DHT22;12359;49.716;9.212;2023-02-10T01:49:29;-3.60;1.00
24224;DHT22;12359;49.716;9.212;2023-02-10T01:52:04;-3.70;1.00
24224;DHT22;12359;49.716;9.212;2023-02-10T01:54:36;-3.70;1.00
24224;DHT22;12359;49.716;9.212;2023-02-10T01:57:04;-3.70;1.00
24224;DHT22;12359;49.716;9.212;2023-02-10T01:59:33;-3.80;1.00
24224;DHT22;12359;49.716;9.212;2023-02-10T02:02:00;-3.70;1.00
24224;DHT22;12359;49.716;9.212;2023-02-10T02:05:14;-3.70;1.00
24224;DHT22;12359;49.716;9.212;2023-02-10T02:07:28;-3.70;3.30
24224;DHT22;12359;49.716;9.212;2023-02-10T02:09:59;-3.70;5.40
24224;DHT22;12359;49.716;9.212;2023-02-10T02:18:28;-3.70;1.00
24224;DHT22;12359;49.716;9.212;2023-02-10T02:34:02;-3.70;16.90
24224;DHT22;12359;49.716;9.212;2023-02-10T02:36:33;-3.70;22.40
24224;DHT22;12359;49.716;9.212;2023-02-10T02:39:04;-3.70;29.50
24224;DHT22;12359;49.716;9.212;2023-02-10T02:41:31;-3.70;30.30
24224;DHT22;12359;49.716;9.212;2023-02-10T02:44:01;-3.70;31.20
24224;DHT22;12359;49.716;9.212;2023-02-10T02:49:10;-3.80;31.50
24224;DHT22;12359;49.716;9.212;2023-02-10T02:55:02;-3.80;31.10
24224;DHT22;12359;49.716;9.212;2023-02-10T02:58:01;-3.80;29.00
24224;DHT22;12359;49.716;9.212;2023-02-10T03:00:30;-3.80;21.80
24224;DHT22;12359;49.716;9.212;2023-02-10T03:03:01;-3.80;20.40
24224;DHT22;12359;49.716;9.212;2023-02-10T03:05:29;-3.80;16.70
24224;DHT22;12359;49.716;9.212;2023-02-10T03:07:56;-3.80;16.80
24224;DHT22;12359;49.716;9.212;2023-02-10T03:10:22;-3.70;17.30
24224;DHT22;12359;49.716;9.212;2023-02-10T03:12:48;-3.70;15.30
24224;DHT22;12359;49.716;9.212;2023-02-10T03:15:13;-3.80;8.50
24224;DHT22;12359;49.716;9.212;2023-02-10T03:17:40;-3.80;8.70
24224;DHT22;12359;49.716;9.212;2023-02-10T03:20:06;-3.90;8.40
24224;DHT22;12359;49.716;9.212;2023-02-10T03:22:32;-3.90;11.30
24224;DHT22;12359;49.716;9.212;2023-02-10T03:24:57;-3.90;7.30
24224;DHT22;12359;49.716;9.212;2023-02-10T03:27:23;-3.90;1.20
24224;DHT22;12359;49.716;9.212;2023-02-10T03:29:49;-4.00;1.00
24224;DHT22;12359;49.716;9.212;2023-02-10T03:32:16;-4.00;4.40
24224;DHT22;12359;49.716;9.212;2023-02-10T03:34:49;-4.00;2.00
24224;DHT22;12359;49.716;9.212;2023-02-10T03:37:15;-4.00;2.90
24224;DHT22;12359;49.716;9.212;2023-02-10T03:39:40;-4.00;3.90
24224;DHT22;12359;49.716;9.212;2023-02-10T03:42:06;-4.00;2.40
24224;DHT22;12359;49.716;9.212;2023-02-10T03:44:32;-4.10;2.90
24224;DHT22;12359;49.716;9.212;2023-02-10T03:46:58;-4.10;6.10
24224;DHT22;12359;49.716;9.212;2023-02-10T03:49:24;-4.10;9.40
24224;DHT22;12359;49.716;9.212;2023-02-10T03:51:49;-4.10;13.60
24224;DHT22;12359;49.716;9.212;2023-02-10T03:54:15;-4.00;12.50
24224;DHT22;12359;49.716;9.212;2023-02-10T03:56:41;-4.00;10.70
24224;DHT22;12359;49.716;9.212;2023-02-10T03:59:06;-4.00;10.40
24224;DHT22;12359;49.716;9.212;2023-02-10T04:01:32;-4.00;9.00
24224;DHT22;12359;49.716;9.212;2023-02-10T04:03:59;-4.00;8.80
24224;DHT22;12359;49.716;9.212;2023-02-10T04:06:25;-3.90;10.30
24224;DHT22;12359;49.716;9.212;2023-02-10T04:08:51;-3.90;13.00
24224;DHT22;12359;49.716;9.212;2023-02-10T04:11:17;-3.90;10.50
24224;DHT22;12359;49.716;9.212;2023-02-10T04:13:42;-3.90;8.30
24224;DHT22;12359;49.716;9.212;2023-02-10T04:16:11;-3.90;2.90
24224;DHT22;12359;49.716;9.212;2023-02-10T04:18:37;-3.90;12.30
24224;DHT22;12359;49.716;9.212;2023-02-10T04:21:09;-3.90;9.60
24224;DHT22;12359;49.716;9.212;2023-02-10T04:23:35;-3.90;5.10
24224;DHT22;12359;49.716;9.212;2023-02-10T04:26:01;-3.90;2.10
24224;DHT22;12359;49.716;9.212;2023-02-10T04:28:27;-4.00;3.70
24224;DHT22;12359;49.716;9.212;2023-02-10T04:30:54;-4.00;2.20
24224;DHT22;12359;49.716;9.212;2023-02-10T04:33:20;-4.00;3.20
24224;DHT22;12359;49.716;9.212;2023-02-10T04:35:49;-4.00;4.00
24224;DHT22;12359;49.716;9.212;2023-02-10T04:38:15;-4.00;3.30
24224;DHT22;12359;49.716;9.212;2023-02-10T04:40:41;-4.10;1.00
24224;DHT22;12359;49.716;9.212;2023-02-10T04:43:08;-4.00;2.00
24224;DHT22;12359;49.716;9.212;2023-02-10T04:45:34;-4.00;4.90
24224;DHT22;12359;49.716;9.212;2023-02-10T04:48:00;-4.00;7.60
24224;DHT22;12359;49.716;9.212;2023-02-10T04:50:25;-4.10;14.90
24224;DHT22;12359;49.716;9.212;2023-02-10T04:52:51;-4.10;16.30
24224;DHT22;12359;49.716;9.212;2023-02-10T04:55:17;-4.00;19.90
24224;DHT22;12359;49.716;9.212;2023-02-10T04:57:42;-4.00;20.90
24224;DHT22;12359;49.716;9.212;2023-02-10T05:00:09;-3.90;22.50
24224;DHT22;12359;49.716;9.212;2023-02-10T05:02:37;-3.90;24.00
24224;DHT22;12359;49.716;9.212;2023-02-10T05:05:03;-3.90;30.30
24224;DHT22;12359;49.716;9.212;2023-02-10T05:07:30;-3.90;28.10
24224;DHT22;12359;49.716;9.212;2023-02-10T05:09:55;-3.90;29.00
24224;DHT22;12359;49.716;9.212;2023-02-10T05:12:21;-3.80;28.40
24224;DHT22;12359;49.716;9.212;2023-02-10T05:14:47;-3.80;27.20
24224;DHT22;12359;49.716;9.212;2023-02-10T05:17:12;-3.80;26.40
24224;DHT22;12359;49.716;9.212;2023-02-10T05:19:39;-3.70;28.50
24224;DHT22;12359;49.716;9.212;2023-02-10T05:22:04;-3.60;26.50
24224;DHT22;12359;49.716;9.212;2023-02-10T05:24:30;-3.50;25.20
24224;DHT22;12359;49.716;9.212;2023-02-10T05:26:55;-3.50;22.10
24224;DHT22;12359;49.716;9.212;2023-02-10T05:29:21;-3.40;18.40
24224;DHT22;12359;49.716;9.212;2023-02-10T05:31:47;-3.40;20.50
24224;DHT22;12359;49.716;9.212;2023-02-10T05:34:13;-3.30;20.40
24224;DHT22;12359;49.716;9.212;2023-02-10T05:36:38;-3.20;17.90
24224;DHT22;12359;49.716;9.212;2023-02-10T05:39:04;-3.20;17.30
24224;DHT22;12359;49.716;9.212;2023-02-10T05:41:48;-3.10;15.20
24224;DHT22;12359;49.716;9.212;2023-02-10T05:44:14;-3.10;12.50
24224;DHT22;12359;49.716;9.212;2023-02-10T05:46:40;-3.10;3.20
24224;DHT22;12359;49.716;9.212;2023-02-10T05:49:08;-3.10;9.00
24224;DHT22;12359;49.716;9.212;2023-02-10T05:51:34;-3.10;7.10
24224;DHT22;12359;49.716;9.212;2023-02-10T05:53:59;-3.10;6.90
24224;DHT22;12359;49.716;9.212;2023-02-10T05:56:25;-3.10;8.10
24224;DHT22;12359;49.716;9.212;2023-02-10T05:58:51;-3.20;13.40
24224;DHT22;12359;49.716;9.212;2023-02-10T06:01:17;-3.20;13.50
24224;DHT22;12359;49.716;9.212;2023-02-10T06:03:42;-3.20;11.70
24224;DHT22;12359;49.716;9.212;2023-02-10T06:06:08;-3.30;16.40
24224;DHT22;12359;49.716;9.212;2023-02-10T06:08:34;-3.20;18.20
24224;DHT22;12359;49.716;9.212;2023-02-10T06:10:59;-3.20;16.40
24224;DHT22;12359;49.716;9.212;2023-02-10T06:13:25;-3.10;19.30
24224;DHT22;12359;49.716;9.212;2023-02-10T06:15:51;-3.10;12.30
24224;DHT22;12359;49.716;9.212;2023-02-10T06:18:17;-3.00;14.30
24224;DHT22;12359;49.716;9.212;2023-02-10T06:20:45;-2.90;15.50
24224;DHT22;12359;49.716;9.212;2023-02-10T06:23:11;-2.90;12.20
24224;DHT22;12359;49.716;9.212;2023-02-10T06:25:37;-2.80;12.50
24224;DHT22;12359;49.716;9.212;2023-02-10T06:28:03;-2.70;7.60
24224;DHT22;12359;49.716;9.212;2023-02-10T06:30:29;-2.70;6.20
24224;DHT22;12359;49.716;9.212;2023-02-10T06:32:55;-2.80;1.00
24224;DHT22;12359;49.716;9.212;2023-02-10T06:35:23;-2.70;4.10
24224;DHT22;12359;49.716;9.212;2023-02-10T06:37:51;-2.70;1.90
24224;DHT22;12359;49.716;9.212;2023-02-10T06:40:17;-2.70;1.60
24224;DHT22;12359;49.716;9.212;2023-02-10T06:42:43;-2.70;1.00
24224;DHT22;12359;49.716;9.212;2023-02-10T06:45:08;-2.60;3.10
24224;DHT22;12359;49.716;9.212;2023-02-10T06:47:35;-2.60;3.70
24224;DHT22;12359;49.716;9.212;2023-02-10T06:50:01;-2.50;2.50
24224;DHT22;12359;49.716;9.212;2023-02-10T06:52:27;-2.50;1.80
24224;DHT22;12359;49.716;9.212;2023-02-10T06:54:53;-2.50;1.00
24224;DHT22;12359;49.716;9.212;2023-02-10T06:57:19;-2.40;1.00
24224;DHT22;12359;49.716;9.212;2023-02-10T06:59:45;-2.40;1.00
24224;DHT22;12359;49.716;9.212;2023-02-10T07:02:11;-2.40;1.00
24224;DHT22;12359;49.716;9.212;2023-02-10T07:04:37;-2.40;5.30
24224;DHT22;12359;49.716;9.212;2023-02-10T07:07:04;-2.40;1.00
24224;DHT22;12359;49.716;9.212;2023-02-10T07:09:30;-2.40;1.00
24224;DHT22;12359;49.716;9.212;2023-02-10T07:11:57;-2.40;1.00
24224;DHT22;12359;49.716;9.212;2023-02-10T07:14:23;-2.30;1.00
24224;DHT22;12359;49.716;9.212;2023-02-10T07:16:51;-2.30;1.00
24224;DHT22;12359;49.716;9.212;2023-02-10T07:19:17;-2.20;1.00
24224;DHT22;12359;49.716;9.212;2023-02-10T07:21:43;-2.10;1.00
24224;DHT22;12359;49.716;9.212;2023-02-10T07:24:09;-2.00;1.00
24224;DHT22;12359;49.716;9.212;2023-02-10T07:26:34;-2.00;1.00
24224;DHT22;12359;49.716;9.212;2023-02-10T07:29:00;-2.00;1.00
24224;DHT22;12359;49.716;9.212;2023-02-10T07:31:26;-2.00;1.00
24224;DHT22;12359;49.716;9.212;2023-02-10T07:33:52;-2.00;1.00
24224;DHT22;12359;49.716;9.212;2023-02-10T07:36:18;-2.00;1.00
24224;DHT22;12359;49.716;9.212;2023-02-10T07:38:43;-2.00;1.00
24224;DHT22;12359;49.716;9.212;2023-02-10T07:41:09;-1.90;1.00
24224;DHT22;12359;49.716;9.212;2023-02-10T07:43:35;-1.90;1.00
24224;DHT22;12359;49.716;9.212;2023-02-10T07:46:01;-1.70;1.00
24224;DHT22;12359;49.716;9.212;2023-02-10T07:48:27;-1.60;1.00
24224;DHT22;12359;49.716;9.212;2023-02-10T07:50:53;-1.50;1.00
24224;DHT22;12359;49.716;9.212;2023-02-10T07:53:19;-1.50;1.00
24224;DHT22;12359;49.716;9.212;2023-02-10T07:55:45;-1.50;1.00
24224;DHT22;12359;49.716;9.212;2023-02-10T07:58:11;-1.30;1.00
24224;DHT22;12359;49.716;9.212;2023-02-10T08:00:37;-1.30;1.00
24224;DHT22;12359;49.716;9.212;2023-02-10T08:03:03;-1.30;1.00
24224;DHT22;12359;49.716;9.212;2023-02-10T08:05:28;-1.30;1.00
24224;DHT22;12359;49.716;9.212;2023-02-10T08:07:55;-1.30;1.00
24224;DHT22;12359;49.716;9.212;2023-02-10T08:10:21;-1.30;1.00
24224;DHT22;12359;49.716;9.212;2023-02-10T08:12:50;-1.20;1.00
24224;DHT22;12359;49.716;9.212;2023-02-10T08:15:15;-1.00;1.00
24224;DHT22;12359;49.716;9.212;2023-02-10T08:17:43;-0.80;1.00
24224;DHT22;12359;49.716;9.212;2023-02-10T08:20:09;-0.60;1.00
24224;DHT22;12359;49.716;9.212;2023-02-10T08:22:35;-0.40;99.90
24224;DHT22;12359;49.716;9.212;2023-02-10T08:25:01;-0.40;99.90
24224;DHT22;12359;49.716;9.212;2023-02-10T08:27:26;-0.20;1.00
24224;DHT22;12359;49.716;9.212;2023-02-10T08:29:54;-0.10;99.90
24224;DHT22;12359;49.716;9.212;2023-02-10T08:32:20;0.00;99.90
24224;DHT22;12359;49.716;9.212;2023-02-10T08:34:47;-0.10;99.90
24224;DHT22;12359;49.716;9.212;2023-02-10T08:37:13;0.00;99.90
24224;DHT22;12359;49.716;9.212;2023-02-10T08:39:38;0.00;99.90
24224;DHT22;12359;49.716;9.212;2023-02-10T08:42:04;0.10;99.90
24224;DHT22;12359;49.716;9.212;2023-02-10T08:44:30;0.10;99.90
24224;DHT22;12359;49.716;9.212;2023-02-10T08:46:55;0.20;99.90
24224;DHT22;12359;49.716;9.212;2023-02-10T08:49:21;0.30;99.90
24224;DHT22;12359;49.716;9.212;2023-02-10T08:51:52;0.30;99.90
24224;DHT22;12359;49.716;9.212;2023-02-10T08:54:18;0.40;99.90
24224;DHT22;12359;49.716;9.212;2023-02-10T08:56:44;0.70;99.90
24224;DHT22;12359;49.716;9.212;2023-02-10T08:59:10;0.90;66.70
24224;DHT22;12359;49.716;9.212;2023-02-10T09:01:36;0.90;1.00
24224;DHT22;12359;49.716;9.212;2023-02-10T09:04:02;0.90;1.00
24224;DHT22;12359;49.716;9.212;2023-02-10T09:06:32;0.90;99.90
24224;DHT22;12359;49.716;9.212;2023-02-10T09:08:59;1.00;1.00
24224;DHT22;12359;49.716;9.212;2023-02-10T09:11:26;1.20;99.90
24224;DHT22;12359;49.716;9.212;2023-02-10T09:13:52;1.30;99.90
24224;DHT22;12359;49.716;9.212;2023-02-10T09:16:18;1.30;99.90
24224;DHT22;12359;49.716;9.212;2023-02-10T09:18:44;1.30;99.90
24224;DHT22;12359;49.716;9.212;2023-02-10T09:21:10;1.20;99.90
24224;DHT22;12359;49.716;9.212;2023-02-10T09:23:36;1.30;99.90
24224;DHT22;12359;49.716;9.212;2023-02-10T09:26:02;1.30;99.90
24224;DHT22;12359;49.716;9.212;2023-02-10T09:28:28;1.20;1.00
24224;DHT22;12359;49.716;9.212;2023-02-10T09:30:54;1.20;99.90
24224;DHT22;12359;49.716;9.212;2023-02-10T09:33:20;1.20;99.90
24224;DHT22;12359;49.716;9.212;2023-02-10T09:35:46;1.10;1.00
24224;DHT22;12359;49.716;9.212;2023-02-10T09:38:13;1.20;1.00
24224;DHT22;12359;49.716;9.212;2023-02-10T09:45:55;1.30;1.00
24224;DHT22;12359;49.716;9.212;2023-02-10T09:48:40;1.40;1.00
24224;DHT22;12359;49.716;9.212;2023-02-10T09:51:35;1.50;1.00
24224;DHT22;12359;49.716;9.212;2023-02-10T09:54:10;1.50;1.00
24224;DHT22;12359;49.716;9.212;2023-02-10T09:56:37;1.60;1.00
24224;DHT22;12359;49.716;9.212;2023-02-10T09:59:05;1.60;1.00
24224;DHT22;12359;49.716;9.212;2023-02-10T10:01:57;1.60;99.90
24224;DHT22;12359;49.716;9.212;2023-02-10T10:04:27;1.60;99.90
24224;DHT22;12359;49.716;9.212;2023-02-10T10:07:31;1.70;99.90
24224;DHT22;12359;49.716;9.212;2023-02-10T10:12:30;1.90;99.90
24224;DHT22;12359;49.716;9.212;2023-02-10T10:14:56;2.00;99.90
24224;DHT22;12359;49.716;9.212;2023-02-10T10:17:44;2.10;89.80
24224;DHT22;12359;49.716;9.212;2023-02-10T10:23:30;2.20;99.90
24224;DHT22;12359;49.716;9.212;2023-02-10T10:28:41;2.30;1.00
24224;DHT22;12359;49.716;9.212;2023-02-10T10:31:17;2.30;99.90
24224;DHT22;12359;49.716;9.212;2023-02-10T10:33:52;2.40;99.90
24224;DHT22;12359;49.716;9.212;2023-02-10T10:36:29;2.50;99.90
24224;DHT22;12359;49.716;9.212;2023-02-10T10:39:01;2.50;92.30
24224;DHT22;12359;49.716;9.212;2023-02-10T10:41:33;2.60;1.00
24224;DHT22;12359;49.716;9.212;2023-02-10T10:44:02;2.60;99.90
24224;DHT22;12359;49.716;9.212;2023-02-10T10:49:08;2.70;99.90
24224;DHT22;12359;49.716;9.212;2023-02-10T10:51:34;2.90;1.00
24224;DHT22;12359;49.716;9.212;2023-02-10T10:54:00;3.10;11.20
24224;DHT22;12359;49.716;9.212;2023-02-10T10:56:46;3.30;1.00
24224;DHT22;12359;49.716;9.212;2023-02-10T10:59:20;3.40;1.00
24224;DHT22;12359;49.716;9.212;2023-02-10T11:01:48;3.50;99.90
24224;DHT22;12359;49.716;9.212;2023-02-10T11:06:41;4.00;99.90
24224;DHT22;12359;49.716;9.212;2023-02-10T11:09:21;4.20;99.90
24224;DHT22;12359;49.716;9.212;2023-02-10T11:11:48;4.30;99.90
24224;DHT22;12359;49.716;9.212;2023-02-10T11:14:25;4.30;99.90
24224;DHT22;12359;49.716;9.212;2023-02-10T11:16:57;4.40;99.90
24224;DHT22;12359;49.716;9.212;2023-02-10T11:19:30;4.50;1.00
24224;DHT22;12359;49.716;9.212;2023-02-10T11:21:57;4.50;99.90
24224;DHT22;12359;49.716;9.212;2023-02-10T11:24:27;4.50;91.90
24224;DHT22;12359;49.716;9.212;2023-02-10T11:29:27;4.70;99.90
24224;DHT22;12359;49.716;9.212;2023-02-10T11:31:54;4.80;99.90
24224;DHT22;12359;49.716;9.212;2023-02-10T11:34:28;5.00;1.00
24224;DHT22;12359;49.716;9.212;2023-02-10T11:36:56;5.20;1.00
24224;DHT22;12359;49.716;9.212;2023-02-10T11:39:35;5.30;1.00
24224;DHT22;12359;49.716;9.212;2023-02-10T11:44:41;5.40;99.90
24224;DHT22;12359;49.716;9.212;2023-02-10T11:47:14;5.50;75.40
24224;DHT22;12359;49.716;9.212;2023-02-10T11:49:48;5.60;2.50
24224;DHT22;12359;49.716;9.212;2023-02-10T11:52:19;5.60;1.00
24224;DHT22;12359;49.716;9.212;2023-02-10T11:54:48;5.70;1.00
24224;DHT22;12359;49.716;9.212;2023-02-10T11:57:50;5.90;1.00
24224;DHT22;12359;49.716;9.212;2023-02-10T12:06:05;6.10;99.90
24224;DHT22;12359;49.716;9.212;2023-02-10T12:17:39;7.00;70.70
24224;DHT22;12359;49.716;9.212;2023-02-10T12:36:52;7.50;99.90
24224;DHT22;12359;49.716;9.212;2023-02-10T12:39:26;7.70;1.00
24224;DHT22;12359;49.716;9.212;2023-02-10T12:44:45;7.80;99.90
24224;DHT22;12359;49.716;9.212;2023-02-10T12:50:02;8.20;99.90
24224;DHT22;12359;49.716;9.212;2023-02-10T12:55:19;8.90;99.90
24224;DHT22;12359;49.716;9.212;2023-02-10T12:57:51;9.20;99.90
24224;DHT22;12359;49.716;9.212;2023-02-10T13:00:37;9.20;99.90
24224;DHT22;12359;49.716;9.212;2023-02-10T13:03:12;9.00;99.90
24224;DHT22;12359;49.716;9.212;2023-02-10T13:05:59;8.60;98.20
24224;DHT22;12359;49.716;9.212;2023-02-10T13:08:36;8.60;99.90
24224;DHT22;12359;49.716;9.212;2023-02-10T13:11:09;8.60;99.90
24224;DHT22;12359;49.716;9.212;2023-02-10T13:13:38;8.50;99.90
24224;DHT22;12359;49.716;9.212;2023-02-10T13:16:15;8.50;99.90
24224;DHT22;12359;49.716;9.212;2023-02-10T13:19:11;8.40;99.90
24224;DHT22;12359;49.716;9.212;2023-02-10T13:21:47;8.20;99.90
24224;DHT22;12359;49.716;9.212;2023-02-10T13:30:06;7.90;99.90
24224;DHT22;12359;49.716;9.212;2023-02-10T13:32:55;7.70;99.90
24224;DHT22;12359;49.716;9.212;2023-02-10T13:35:24;7.70;99.90
24224;DHT22;12359;49.716;9.212;2023-02-10T13:37:55;7.70;99.90
24224;DHT22;12359;49.716;9.212;2023-02-10T13:40:27;7.60;99.90
24224;DHT22;12359;49.716;9.212;2023-02-10T13:43:00;7.70;99.90
24224;DHT22;12359;49.716;9.212;2023-02-10T13:45:31;7.60;99.90
24224;DHT22;12359;49.716;9.212;2023-02-10T13:48:05;7.60;99.90
24224;DHT22;12359;49.716;9.212;2023-02-10T13:50:42;7.50;99.90
24224;DHT22;12359;49.716;9.212;2023-02-10T13:58:58;7.50;99.90
24224;DHT22;12359;49.716;9.212;2023-02-10T14:01:48;7.40;99.90
24224;DHT22;12359;49.716;9.212;2023-02-10T14:06:45;7.40;99.90
24224;DHT22;12359;49.716;9.212;2023-02-10T14:09:22;7.40;99.90
24224;DHT22;12359;49.716;9.212;2023-02-10T14:11:58;7.50;99.90
24224;DHT22;12359;49.716;9.212;2023-02-10T14:17:20;7.40;99.90
24224;DHT22;12359;49.716;9.212;2023-02-10T14:19:48;7.40;99.90
24224;DHT22;12359;49.716;9.212;2023-02-10T14:24:52;7.30;99.90
24224;DHT22;12359;49.716;9.212;2023-02-10T14:27:21;7.30;99.90
24224;DHT22;12359;49.716;9.212;2023-02-10T14:30:18;7.30;99.90
24224;DHT22;12359;49.716;9.212;2023-02-10T14:32:45;7.30;99.90
24224;DHT22;12359;49.716;9.212;2023-02-10T14:35:25;7.30;99.90
24224;DHT22;12359;49.716;9.212;2023-02-10T14:37:52;7.30;99.90
24224;DHT22;12359;49.716;9.212;2023-02-10T14:40:21;7.30;99.90
24224;DHT22;12359;49.716;9.212;2023-02-10T14:42:48;7.30;99.90
24224;DHT22;12359;49.716;9.212;2023-02-10T14:45:23;7.20;99.90
24224;DHT22;12359;49.716;9.212;2023-02-10T14:47:55;7.30;99.90
24224;DHT22;12359;49.716;9.212;2023-02-10T14:52:55;7.20;99.90
24224;DHT22;12359;49.716;9.212;2023-02-10T14:57:57;7.20;99.90
24224;DHT22;12359;49.716;9.212;2023-02-10T15:00:24;7.20;99.90
24224;DHT22;12359;49.716;9.212;2023-02-10T15:02:56;7.10;99.90
24224;DHT22;12359;49.716;9.212;2023-02-10T15:05:22;7.10;99.90
24224;DHT22;12359;49.716;9.212;2023-02-10T15:07:51;7.10;99.90
24224;DHT22;12359;49.716;9.212;2023-02-10T15:10:35;7.10;99.90
24224;DHT22;12359;49.716;9.212;2023-02-10T15:13:05;7.10;99.90
24224;DHT22;12359;49.716;9.212;2023-02-10T15:15:35;7.00;99.90
24224;DHT22;12359;49.716;9.212;2023-02-10T15:18:12;7.00;99.90
24224;DHT22;12359;49.716;9.212;2023-02-10T15:20:54;6.90;99.90
24224;DHT22;12359;49.716;9.212;2023-02-10T15:23:20;6.70;1.00
24224;DHT22;12359;49.716;9.212;2023-02-10T15:25:46;6.70;1.00
24224;DHT22;12359;49.716;9.212;2023-02-10T15:31:18;6.50;51.50
24224;DHT22;12359;49.716;9.212;2023-02-10T15:33:55;6.40;99.90
24224;DHT22;12359;49.716;9.212;2023-02-10T15:36:45;6.20;1.00
24224;DHT22;12359;49.716;9.212;2023-02-10T15:39:23;6.20;91.50
24224;DHT22;12359;49.716;9.212;2023-02-10T15:46:46;6.00;99.90
24224;DHT22;12359;49.716;9.212;2023-02-10T15:49:14;6.00;99.90
24224;DHT22;12359;49.716;9.212;2023-02-10T15:51:43;5.90;99.90
24224;DHT22;12359;49.716;9.212;2023-02-10T15:54:18;5.90;1.00
24224;DHT22;12359;49.716;9.212;2023-02-10T15:57:01;5.80;1.00
24224;DHT22;12359;49.716;9.212;2023-02-10T15:59:27;5.80;1.00
24224;DHT22;12359;49.716;9.212;2023-02-10T16:02:00;5.80;1.00
24224;DHT22;12359;49.716;9.212;2023-02-10T16:04:27;5.70;54.80
24224;DHT22;12359;49.716;9.212;2023-02-10T16:06:55;5.70;99.90
24224;DHT22;12359;49.716;9.212;2023-02-10T16:09:21;5.60;99.90
24224;DHT22;12359;49.716;9.212;2023-02-10T16:11:47;5.60;1.00
24224;DHT22;12359;49.716;9.212;2023-02-10T16:14:13;5.60;1.00
24224;DHT22;12359;49.716;9.212;2023-02-10T16:16:45;5.50;1.00
24224;DHT22;12359;49.716;9.212;2023-02-10T16:19:13;5.50;20.90
24224;DHT22;12359;49.716;9.212;2023-02-10T16:21:40;5.50;97.80
24224;DHT22;12359;49.716;9.212;2023-02-10T16:24:08;5.50;99.90
24224;DHT22;12359;49.716;9.212;2023-02-10T16:26:37;5.40;1.00
24224;DHT22;12359;49.716;9.212;2023-02-10T16:29:04;5.30;99.90
24224;DHT22;12359;49.716;9.212;2023-02-10T16:31:30;5.20;99.90
24224;DHT22;12359;49.716;9.212;2023-02-10T16:33:57;5.20;99.90
24224;DHT22;12359;49.716;9.212;2023-02-10T16:36:23;5.10;1.00
24224;DHT22;12359;49.716;9.212;2023-02-10T16:38:49;5.10;1.00
24224;DHT22;12359;49.716;9.212;2023-02-10T16:41:14;5.10;1.00
24224;DHT22;12359;49.716;9.212;2023-02-10T16:43:40;5.10;99.90
24224;DHT22;12359;49.716;9.212;2023-02-10T16:46:07;5.10;99.90
24224;DHT22;12359;49.716;9.212;2023-02-10T16:48:33;5.10;99.90
24224;DHT22;12359;49.716;9.212;2023-02-10T16:50:59;5.10;99.90
24224;DHT22;12359;49.716;9.212;2023-02-10T16:53:25;5.10;92.50
24224;DHT22;12359;49.716;9.212;2023-02-10T16:55:50;5.00;1.00
24224;DHT22;12359;49.716;9.212;2023-02-10T16:58:16;5.00;99.90
24224;DHT22;12359;49.716;9.212;2023-02-10T17:00:43;4.90;99.90
24224;DHT22;12359;49.716;9.212;2023-02-10T17:03:09;4.90;1.00
24224;DHT22;12359;49.716;9.212;2023-02-10T17:05:35;4.80;99.90
24224;DHT22;12359;49.716;9.212;2023-02-10T17:08:03;4.80;99.90
24224;DHT22;12359;49.716;9.212;2023-02-10T17:10:30;4.70;1.00
24224;DHT22;12359;49.716;9.212;2023-02-10T17:12:57;4.60;99.90
24224;DHT22;12359;49.716;9.212;2023-02-10T17:15:23;4.50;90.80
24224;DHT22;12359;49.716;9.212;2023-02-10T17:17:49;4.40;99.90
24224;DHT22;12359;49.716;9.212;2023-02-10T17:20:27;4.40;1.00
24224;DHT22;12359;49.716;9.212;2023-02-10T17:22:53;4.30;65.10
24224;DHT22;12359;49.716;9.212;2023-02-10T17:25:21;4.30;99.90
24224;DHT22;12359;49.716;9.212;2023-02-10T17:27:48;4.30;99.90
24224;DHT22;12359;49.716;9.212;2023-02-10T17:30:16;4.20;1.00
24224;DHT22;12359;49.716;9.212;2023-02-10T17:32:43;4.20;1.00
24224;DHT22;12359;49.716;9.212;2023-02-10T17:35:11;4.20;1.00
24224;DHT22;12359;49.716;9.212;2023-02-10T17:37:38;4.20;1.00
24224;DHT22;12359;49.716;9.212;2023-02-10T17:40:04;4.20;1.00
24224;DHT22;12359;49.716;9.212;2023-02-10T17:42:51;4.20;1.00
24224;DHT22;12359;49.716;9.212;2023-02-10T17:45:17;4.20;99.90
24224;DHT22;12359;49.716;9.212;2023-02-10T17:47:44;4.10;1.00
24224;DHT22;12359;49.716;9.212;2023-02-10T17:50:10;4.10;1.00
24224;DHT22;12359;49.716;9.212;2023-02-10T17:52:36;4.00;99.90
24224;DHT22;12359;49.716;9.212;2023-02-10T17:55:02;3.90;99.90
24224;DHT22;12359;49.716;9.212;2023-02-10T17:57:29;3.90;99.90